createdAt,value
2023-05-05T00:01:01.166Z,8.40
2023-05-05T00:03:29.198Z,8.40
2023-05-05T00:05:57.456Z,8.30
2023-05-05T00:08:25.219Z,8.20
2023-05-05T00:10:54.182Z,8.30
2023-05-05T00:13:23.435Z,8.30
2023-05-05T00:15:53.667Z,8.30
2023-05-05T00:18:21.971Z,8.30
2023-05-05T00:20:50.071Z,8.30
2023-05-05T00:23:18.165Z,8.30
2023-05-05T00:25:45.879Z,8.30
2023-05-05T00:28:14.086Z,8.40
2023-05-05T00:30:43.552Z,8.40
2023-05-05T00:33:11.352Z,8.20
2023-05-05T00:35:39.376Z,8.10
2023-05-05T00:38:07.421Z,8.00
2023-05-05T00:40:35.220Z,7.90
2023-05-05T00:43:02.969Z,7.90
2023-05-05T00:45:31.721Z,7.90
2023-05-05T00:48:01.649Z,7.90
2023-05-05T00:50:31.380Z,8.00
2023-05-05T00:53:02.457Z,7.90
2023-05-05T00:55:30.864Z,8.00
2023-05-05T00:57:59.753Z,8.00
2023-05-05T01:00:28.604Z,8.00
2023-05-05T01:02:56.565Z,7.90
2023-05-05T01:05:28.112Z,7.90
2023-05-05T01:08:09.323Z,7.70
2023-05-05T01:10:40.150Z,7.70
2023-05-05T01:13:23.258Z,7.60
2023-05-05T01:15:56.674Z,7.50
2023-05-05T01:18:33.506Z,7.40
2023-05-05T01:21:07.666Z,7.40
2023-05-05T01:23:54.667Z,7.30
2023-05-05T01:26:44.345Z,7.30
2023-05-05T01:29:32.516Z,7.30
2023-05-05T01:32:05.038Z,7.30
2023-05-05T01:34:37.330Z,7.30
2023-05-05T01:37:11.012Z,7.30
2023-05-05T01:39:41.392Z,7.30
2023-05-05T01:42:13.856Z,7.30
2023-05-05T01:44:44.495Z,7.30
2023-05-05T01:47:15.917Z,7.30
2023-05-05T01:49:46.869Z,7.40
2023-05-05T01:52:16.153Z,7.40
2023-05-05T01:54:46.118Z,7.50
2023-05-05T01:57:15.659Z,7.50
2023-05-05T01:59:43.698Z,7.30
2023-05-05T02:02:14.014Z,7.30
2023-05-05T02:04:44.975Z,7.20
2023-05-05T02:07:14.953Z,7.20
2023-05-05T02:09:45.468Z,7.20
2023-05-05T02:12:13.753Z,7.20
2023-05-05T02:14:43.581Z,7.20
2023-05-05T02:17:12.298Z,7.10
2023-05-05T02:19:44.841Z,7.00
2023-05-05T02:22:15.404Z,6.90
2023-05-05T02:24:43.591Z,6.80
2023-05-05T02:27:12.744Z,6.70
2023-05-05T02:29:46.870Z,6.70
2023-05-05T02:32:19.835Z,6.60
2023-05-05T02:34:51.200Z,6.60
2023-05-05T02:37:22.253Z,6.40
2023-05-05T02:39:58.802Z,6.30
2023-05-05T02:42:30.472Z,6.30
2023-05-05T02:45:00.709Z,6.20
2023-05-05T02:47:35.009Z,6.10
2023-05-05T02:50:04.294Z,6.10
2023-05-05T02:52:32.936Z,6.10
2023-05-05T02:55:01.207Z,6.10
2023-05-05T02:57:36.631Z,6.20
2023-05-05T03:00:09.600Z,6.30
2023-05-05T03:02:45.480Z,6.40
2023-05-05T03:05:20.743Z,6.40
2023-05-05T03:07:54.722Z,6.30
2023-05-05T03:10:28.640Z,6.20
2023-05-05T03:12:59.367Z,6.20
2023-05-05T03:15:31.278Z,6.00
2023-05-05T03:17:59.971Z,5.90
2023-05-05T03:20:30.541Z,5.80
2023-05-05T03:22:58.608Z,5.70
2023-05-05T03:25:44.587Z,5.70
2023-05-05T03:28:12.538Z,5.60
2023-05-05T03:30:40.629Z,5.50
2023-05-05T03:33:09.489Z,5.50
2023-05-05T03:35:38.710Z,5.50
2023-05-05T03:38:06.477Z,5.60
2023-05-05T03:40:43.619Z,5.60
2023-05-05T03:43:12.243Z,5.60
2023-05-05T03:45:40.051Z,5.70
2023-05-05T03:48:09.635Z,5.70
2023-05-05T03:50:38.798Z,5.70
2023-05-05T03:53:06.490Z,5.70
2023-05-05T03:55:34.193Z,5.80
2023-05-05T03:58:01.925Z,5.80
2023-05-05T04:00:29.669Z,5.80
2023-05-05T04:02:57.474Z,5.90
2023-05-05T04:05:25.389Z,5.90
2023-05-05T04:07:54.426Z,6.00
2023-05-05T04:10:22.454Z,6.10
2023-05-05T04:12:50.240Z,6.00
2023-05-05T04:15:17.997Z,6.10
2023-05-05T04:17:45.805Z,6.10
2023-05-05T04:20:13.651Z,6.10
2023-05-05T04:22:41.416Z,6.10
2023-05-05T04:25:10.947Z,6.20
2023-05-05T04:27:38.707Z,6.30
2023-05-05T04:30:07.793Z,6.30
2023-05-05T04:32:35.902Z,6.30
2023-05-05T04:35:03.701Z,6.40
2023-05-05T04:37:31.421Z,6.40
2023-05-05T04:39:59.115Z,6.40
2023-05-05T04:42:28.198Z,6.50
2023-05-05T04:44:56.074Z,6.60
2023-05-05T04:47:23.810Z,6.70
2023-05-05T04:49:51.582Z,6.80
2023-05-05T04:52:19.274Z,7.00
2023-05-05T04:54:46.991Z,7.10
2023-05-05T04:57:14.728Z,7.20
2023-05-05T04:59:43.762Z,7.30
2023-05-05T05:02:11.860Z,7.40
2023-05-05T05:04:39.707Z,7.50
2023-05-05T05:07:07.404Z,7.70
2023-05-05T05:09:35.120Z,7.90
2023-05-05T05:12:03.812Z,8.10
2023-05-05T05:14:31.563Z,8.30
2023-05-05T05:17:00.604Z,8.50
2023-05-05T05:19:28.320Z,9.00
2023-05-05T05:21:56.011Z,9.10
2023-05-05T05:24:24.819Z,9.30
2023-05-05T05:26:52.662Z,9.40
2023-05-05T05:29:20.574Z,9.60
2023-05-05T05:31:48.293Z,9.70
2023-05-05T05:34:17.431Z,9.90
2023-05-05T05:36:45.124Z,10.00
2023-05-05T05:39:13.486Z,10.10
2023-05-05T05:41:41.202Z,10.20
2023-05-05T05:44:08.933Z,10.20
2023-05-05T05:46:36.717Z,10.30
2023-05-05T05:49:04.527Z,10.40
2023-05-05T05:51:33.679Z,10.40
2023-05-05T05:54:01.393Z,10.50
2023-05-05T05:56:29.163Z,10.50
2023-05-05T05:58:57.163Z,10.50
2023-05-05T06:01:24.866Z,10.60
2023-05-05T06:03:52.801Z,10.70
2023-05-05T06:06:20.622Z,11.00
2023-05-05T06:08:49.625Z,11.30
2023-05-05T06:11:17.717Z,11.70
2023-05-05T06:13:45.451Z,12.20
2023-05-05T06:16:13.240Z,12.60
2023-05-05T06:18:41.020Z,12.90
2023-05-05T06:21:08.816Z,13.10
2023-05-05T06:23:36.553Z,13.30
2023-05-05T06:26:05.631Z,13.30
2023-05-05T06:28:33.369Z,13.20
2023-05-05T06:31:01.370Z,13.10
2023-05-05T06:33:29.159Z,13.10
2023-05-05T06:35:56.940Z,13.20
2023-05-05T06:38:24.688Z,13.30
2023-05-05T06:40:52.457Z,13.40
2023-05-05T06:43:21.957Z,13.40
2023-05-05T06:45:49.656Z,13.60
2023-05-05T06:48:17.381Z,13.60
2023-05-05T06:50:45.071Z,13.70
2023-05-05T06:53:12.835Z,13.60
2023-05-05T06:55:44.062Z,13.40
2023-05-05T06:58:11.880Z,13.40
2023-05-05T07:00:41.168Z,13.40
2023-05-05T07:03:09.081Z,13.50
2023-05-05T07:05:37.549Z,13.60
2023-05-05T07:08:05.474Z,13.70
2023-05-05T07:10:34.108Z,13.90
2023-05-05T07:13:02.027Z,13.90
2023-05-05T07:15:29.957Z,14.00
2023-05-05T07:17:59.195Z,14.10
2023-05-05T07:20:27.435Z,14.40
2023-05-05T07:22:55.285Z,14.60
2023-05-05T07:25:23.282Z,14.70
2023-05-05T07:27:51.175Z,14.90
2023-05-05T07:30:19.469Z,15.10
2023-05-05T07:32:47.772Z,15.10
2023-05-05T07:35:16.971Z,15.10
2023-05-05T07:37:45.454Z,15.30
2023-05-05T07:40:13.899Z,15.40
2023-05-05T07:42:41.719Z,15.60
2023-05-05T07:45:10.021Z,15.80
2023-05-05T07:47:38.061Z,15.90
2023-05-05T07:50:07.136Z,16.10
2023-05-05T07:52:46.595Z,16.30
2023-05-05T07:55:17.634Z,16.50
2023-05-05T07:57:45.421Z,16.80
2023-05-05T08:00:14.448Z,17.10
2023-05-05T08:02:42.482Z,17.20
2023-05-05T08:05:10.562Z,17.30
2023-05-05T08:07:41.802Z,17.40
2023-05-05T08:10:10.795Z,17.50
2023-05-05T08:12:38.880Z,17.60
2023-05-05T08:15:07.810Z,17.70
2023-05-05T08:17:46.795Z,18.00
2023-05-05T08:20:14.663Z,18.30
2023-05-05T08:22:44.092Z,19.00
2023-05-05T08:25:12.994Z,20.30
2023-05-05T08:27:41.727Z,21.30
2023-05-05T08:30:10.736Z,22.10
2023-05-05T08:32:38.987Z,23.70
2023-05-05T08:35:08.092Z,24.90
2023-05-05T08:37:36.147Z,26.30
2023-05-05T08:40:07.531Z,28.60
2023-05-05T08:42:37.807Z,29.60
2023-05-05T08:45:08.077Z,29.90
2023-05-05T08:47:36.702Z,29.70
2023-05-05T08:50:05.937Z,29.80
2023-05-05T08:52:40.171Z,30.70
2023-05-05T08:55:15.272Z,30.90
2023-05-05T08:57:48.752Z,31.00
2023-05-05T09:00:19.573Z,31.10
2023-05-05T09:02:48.417Z,32.00
2023-05-05T09:05:16.788Z,33.00
2023-05-05T09:07:45.224Z,33.00
2023-05-05T09:10:15.247Z,32.80
2023-05-05T09:12:43.226Z,32.70
2023-05-05T09:15:12.592Z,33.10
2023-05-05T09:17:40.891Z,33.10
2023-05-05T09:20:10.521Z,33.60
2023-05-05T09:22:39.769Z,33.00
2023-05-05T09:25:10.100Z,33.10
2023-05-05T09:27:40.784Z,33.50
2023-05-05T09:30:10.055Z,33.50
2023-05-05T09:32:47.964Z,32.30
2023-05-05T09:35:16.570Z,31.40
2023-05-05T09:37:44.932Z,31.80
2023-05-05T09:40:15.378Z,31.90
2023-05-05T09:42:45.331Z,31.80
2023-05-05T09:45:27.374Z,31.60
2023-05-05T09:47:59.746Z,31.50
2023-05-05T09:50:30.760Z,31.50
2023-05-05T09:53:00.077Z,32.20
2023-05-05T09:55:28.012Z,32.20
2023-05-05T09:57:57.317Z,32.50
2023-05-05T10:00:39.433Z,32.50
2023-05-05T10:03:07.331Z,31.70
2023-05-05T10:05:48.843Z,30.40
2023-05-05T10:08:17.495Z,30.60
2023-05-05T10:10:50.436Z,30.50
2023-05-05T10:13:20.613Z,29.40
2023-05-05T10:15:49.752Z,27.70
2023-05-05T10:18:21.440Z,26.80
2023-05-05T10:20:53.906Z,27.40
2023-05-05T10:23:24.510Z,29.40
2023-05-05T10:25:56.454Z,29.80
2023-05-05T10:28:32.369Z,30.10
2023-05-05T10:31:07.637Z,30.10
2023-05-05T10:33:48.760Z,30.20
2023-05-05T10:36:17.672Z,32.10
2023-05-05T10:38:47.304Z,33.20
2023-05-05T10:41:15.220Z,33.10
2023-05-05T10:43:44.729Z,33.40
2023-05-05T10:46:12.772Z,33.60
2023-05-05T10:48:47.952Z,34.10
2023-05-05T10:51:39.250Z,33.80
2023-05-05T10:54:14.744Z,32.50
2023-05-05T10:56:43.772Z,32.60
2023-05-05T10:59:44.445Z,32.90
2023-05-05T11:02:28.715Z,32.80
2023-05-05T11:05:17.857Z,31.70
2023-05-05T11:07:46.974Z,30.20
2023-05-05T11:10:16.459Z,28.90
2023-05-05T11:13:18.932Z,28.80
2023-05-05T11:15:48.593Z,28.00
2023-05-05T11:18:37.331Z,25.60
2023-05-05T11:21:24.423Z,25.50
2023-05-05T11:23:53.887Z,26.00
2023-05-05T11:26:52.457Z,26.10
2023-05-05T11:29:20.202Z,26.00
2023-05-05T11:32:12.313Z,26.10
2023-05-05T11:34:49.287Z,25.70
2023-05-05T11:37:17.177Z,25.20
2023-05-05T11:39:54.452Z,24.60
2023-05-05T11:42:26.642Z,24.40
2023-05-05T11:44:55.601Z,24.10
2023-05-05T11:47:32.227Z,24.20
2023-05-05T11:50:17.324Z,24.50
2023-05-05T11:52:45.069Z,24.40
2023-05-05T11:55:13.032Z,24.20
2023-05-05T11:57:41.336Z,24.00
2023-05-05T12:00:10.156Z,24.10
2023-05-05T12:02:39.459Z,23.60
2023-05-05T12:05:08.207Z,23.20
2023-05-05T12:07:36.495Z,23.30
2023-05-05T12:10:04.443Z,23.60
2023-05-05T12:12:37.132Z,24.00
2023-05-05T12:15:05.878Z,24.20
2023-05-05T12:17:44.947Z,24.40
2023-05-05T12:20:13.797Z,24.20
2023-05-05T12:22:41.892Z,24.50
2023-05-05T12:25:10.437Z,24.40
2023-05-05T12:27:38.729Z,24.20
2023-05-05T12:30:15.621Z,24.20
2023-05-05T12:32:45.609Z,24.10
2023-05-05T12:35:14.458Z,23.70
2023-05-05T12:37:43.432Z,23.50
2023-05-05T12:40:45.127Z,23.50
2023-05-05T12:43:25.125Z,23.50
2023-05-05T12:46:03.739Z,23.50
2023-05-05T12:48:33.266Z,23.60
2023-05-05T12:51:14.918Z,23.70
2023-05-05T12:53:43.160Z,23.60
2023-05-05T12:56:30.392Z,23.40
2023-05-05T12:58:58.162Z,23.30
2023-05-05T13:01:25.939Z,23.20
2023-05-05T13:04:12.125Z,23.00
2023-05-05T13:06:40.536Z,22.80
2023-05-05T13:09:08.988Z,22.90
2023-05-05T13:11:37.615Z,23.10
2023-05-05T13:14:05.501Z,23.10
2023-05-05T13:16:33.785Z,23.20
2023-05-05T13:19:01.525Z,23.40
2023-05-05T13:21:30.573Z,23.30
2023-05-05T13:24:08.115Z,23.20
2023-05-05T13:26:40.491Z,23.00
2023-05-05T13:29:08.204Z,22.70
2023-05-05T13:31:36.026Z,22.70
2023-05-05T13:34:03.865Z,22.60
2023-05-05T13:36:32.908Z,22.50
2023-05-05T13:39:00.648Z,22.50
2023-05-05T13:41:28.652Z,22.60
2023-05-05T13:43:56.625Z,22.60
2023-05-05T13:46:24.390Z,22.60
2023-05-05T13:48:55.974Z,22.80
2023-05-05T13:51:24.209Z,22.60
2023-05-05T13:53:53.288Z,22.50
2023-05-05T13:56:23.413Z,22.50
2023-05-05T13:58:51.314Z,22.50
2023-05-05T14:01:19.099Z,22.60
2023-05-05T14:03:46.896Z,22.70
2023-05-05T14:06:14.578Z,22.60
2023-05-05T14:08:42.670Z,22.40
2023-05-05T14:11:11.972Z,22.40
2023-05-05T14:13:39.678Z,22.40
2023-05-05T14:16:07.736Z,22.50
2023-05-05T14:18:35.746Z,22.30
2023-05-05T14:21:03.444Z,22.20
2023-05-05T14:23:31.933Z,22.10
2023-05-05T14:25:59.634Z,22.20
2023-05-05T14:28:28.710Z,22.40
2023-05-05T14:30:56.659Z,22.60
2023-05-05T14:33:24.418Z,22.50
2023-05-05T14:35:52.232Z,22.60
2023-05-05T14:38:20.093Z,22.50
2023-05-05T14:40:47.842Z,22.30
2023-05-05T14:43:15.547Z,22.20
2023-05-05T14:45:45.132Z,22.20
2023-05-05T14:48:12.941Z,22.10
2023-05-05T14:50:42.436Z,22.20
2023-05-05T14:53:10.224Z,22.10
2023-05-05T14:55:38.411Z,22.20
2023-05-05T14:58:06.258Z,22.20
2023-05-05T15:00:33.951Z,22.20
2023-05-05T15:03:03.174Z,22.20
2023-05-05T15:05:30.930Z,22.20
2023-05-05T15:07:58.674Z,22.20
2023-05-05T15:10:26.561Z,22.20
2023-05-05T15:12:54.597Z,22.20
2023-05-05T15:15:22.325Z,22.10
2023-05-05T15:17:50.079Z,22.00
2023-05-05T15:20:19.287Z,21.90
2023-05-05T15:22:48.983Z,21.70
2023-05-05T15:25:18.911Z,21.50
2023-05-05T15:27:46.628Z,21.40
2023-05-05T15:30:15.298Z,21.10
2023-05-05T15:32:43.258Z,20.90
2023-05-05T15:35:11.215Z,20.70
2023-05-05T15:37:40.755Z,20.60
2023-05-05T15:40:09.741Z,20.40
2023-05-05T15:42:37.782Z,20.30
2023-05-05T15:45:08.214Z,20.30
2023-05-05T15:47:36.037Z,20.30
2023-05-05T15:50:03.880Z,20.40
2023-05-05T15:52:31.565Z,20.50
2023-05-05T15:55:00.611Z,20.50
2023-05-05T15:57:28.420Z,20.70
2023-05-05T15:59:56.171Z,20.60
2023-05-05T16:02:24.424Z,20.80
2023-05-05T16:04:52.202Z,20.50
2023-05-05T16:07:20.046Z,20.50
2023-05-05T16:09:47.746Z,20.40
2023-05-05T16:12:16.872Z,20.20
2023-05-05T16:14:44.657Z,20.10
2023-05-05T16:17:12.392Z,20.10
2023-05-05T16:19:40.301Z,20.10
2023-05-05T16:22:08.031Z,20.00
2023-05-05T16:24:39.407Z,20.00
2023-05-05T16:27:09.570Z,20.00
2023-05-05T16:29:38.640Z,19.90
2023-05-05T16:32:07.778Z,19.70
2023-05-05T16:34:35.965Z,19.60
2023-05-05T16:37:03.690Z,19.60
2023-05-05T16:39:33.029Z,19.50
2023-05-05T16:42:00.855Z,19.50
2023-05-05T16:44:28.554Z,19.50
2023-05-05T16:46:58.352Z,19.50
2023-05-05T16:49:26.308Z,19.60
2023-05-05T16:51:54.503Z,19.60
2023-05-05T16:54:22.285Z,19.50
2023-05-05T16:56:50.041Z,19.50
2023-05-05T16:59:19.317Z,19.40
2023-05-05T17:01:47.203Z,19.40
2023-05-05T17:04:16.358Z,19.30
2023-05-05T17:06:44.104Z,19.10
2023-05-05T17:09:11.936Z,19.00
2023-05-05T17:11:39.697Z,19.10
2023-05-05T17:14:07.456Z,19.00
2023-05-05T17:16:35.694Z,18.90
2023-05-05T17:19:03.534Z,18.70
2023-05-05T17:21:32.854Z,18.70
2023-05-05T17:24:01.375Z,18.60
2023-05-05T17:26:29.183Z,18.50
2023-05-05T17:28:56.924Z,18.50
2023-05-05T17:31:24.651Z,18.50
2023-05-05T17:33:52.519Z,18.50
2023-05-05T17:36:20.446Z,18.40
2023-05-05T17:38:49.613Z,18.40
2023-05-05T17:41:17.594Z,18.40
2023-05-05T17:43:45.330Z,18.30
2023-05-05T17:46:13.189Z,18.20
2023-05-05T17:48:41.260Z,18.10
2023-05-05T17:51:09.051Z,18.10
2023-05-05T17:53:36.872Z,18.00
2023-05-05T17:56:08.687Z,18.00
2023-05-05T17:58:36.845Z,17.90
2023-05-05T18:01:04.794Z,17.80
2023-05-05T18:03:32.651Z,17.80
2023-05-05T18:06:01.218Z,17.70
2023-05-05T18:08:29.129Z,17.70
2023-05-05T18:10:57.154Z,17.70
2023-05-05T18:13:26.328Z,17.70
2023-05-05T18:15:54.128Z,17.70
2023-05-05T18:18:23.667Z,17.70
2023-05-05T18:20:54.877Z,17.60
2023-05-05T18:23:23.047Z,17.60
2023-05-05T18:25:51.091Z,17.60
2023-05-05T18:28:18.862Z,17.50
2023-05-05T18:30:47.907Z,17.50
2023-05-05T18:33:16.659Z,17.50
2023-05-05T18:35:44.396Z,17.40
2023-05-05T18:38:12.185Z,17.30
2023-05-05T18:40:39.895Z,17.30
2023-05-05T18:43:07.607Z,17.30
2023-05-05T18:45:35.622Z,17.20
2023-05-05T18:48:04.972Z,17.20
2023-05-05T18:50:33.304Z,17.10
2023-05-05T18:53:01.066Z,17.00
2023-05-05T18:55:28.896Z,16.90
2023-05-05T18:57:56.706Z,16.80
2023-05-05T19:00:24.663Z,16.70
2023-05-05T19:02:52.539Z,16.60
2023-05-05T19:05:22.220Z,16.60
2023-05-05T19:07:50.052Z,16.50
2023-05-05T19:10:17.763Z,16.60
2023-05-05T19:12:45.720Z,16.50
2023-05-05T19:15:14.123Z,16.50
2023-05-05T19:17:42.014Z,16.40
2023-05-05T19:20:10.869Z,16.30
2023-05-05T19:22:40.064Z,16.30
2023-05-05T19:25:09.005Z,16.30
2023-05-05T19:27:37.104Z,16.30
2023-05-05T19:30:05.399Z,16.30
2023-05-05T19:32:33.282Z,16.30
2023-05-05T19:35:01.487Z,16.30
2023-05-05T19:37:29.432Z,16.20
2023-05-05T19:39:58.514Z,16.20
2023-05-05T19:42:26.363Z,16.10
2023-05-05T19:44:54.177Z,16.00
2023-05-05T19:47:22.178Z,16.00
2023-05-05T19:49:49.938Z,15.90
2023-05-05T19:52:17.706Z,16.00
2023-05-05T19:54:45.683Z,15.90
2023-05-05T19:57:14.971Z,15.90
2023-05-05T19:59:42.757Z,15.80
2023-05-05T20:02:11.554Z,15.70
2023-05-05T20:04:39.446Z,15.80
2023-05-05T20:07:07.218Z,15.60
2023-05-05T20:09:35.084Z,15.50
2023-05-05T20:12:02.890Z,15.50
2023-05-05T20:14:32.405Z,15.40
2023-05-05T20:17:00.163Z,15.50
2023-05-05T20:19:28.021Z,15.40
2023-05-05T20:21:57.027Z,15.40
2023-05-05T20:24:24.875Z,15.40
2023-05-05T20:26:52.618Z,15.40
2023-05-05T20:29:20.745Z,15.40
2023-05-05T20:31:50.127Z,15.40
2023-05-05T20:34:18.080Z,15.40
2023-05-05T20:36:46.128Z,15.20
2023-05-05T20:39:16.332Z,15.20
2023-05-05T20:41:44.310Z,15.20
2023-05-05T20:44:12.166Z,15.10
2023-05-05T20:46:39.950Z,15.20
2023-05-05T20:49:09.067Z,15.10
2023-05-05T20:51:36.781Z,15.00
2023-05-05T20:54:05.020Z,14.90
2023-05-05T20:56:32.785Z,14.80
2023-05-05T20:59:00.931Z,14.80
2023-05-05T21:01:29.155Z,14.80
2023-05-05T21:03:56.947Z,14.80
2023-05-05T21:06:26.029Z,14.70
2023-05-05T21:08:53.776Z,14.70
2023-05-05T21:11:21.520Z,14.70
2023-05-05T21:13:49.235Z,14.60
2023-05-05T21:16:17.046Z,14.50
2023-05-05T21:18:46.728Z,14.50
2023-05-05T21:21:14.497Z,14.40
2023-05-05T21:23:43.540Z,14.40
2023-05-05T21:26:11.304Z,14.40
2023-05-05T21:28:38.994Z,14.40
2023-05-05T21:31:21.240Z,14.30
2023-05-05T21:33:49.818Z,14.30
2023-05-05T21:36:19.087Z,14.20
2023-05-05T21:38:48.244Z,14.20
2023-05-05T21:41:16.679Z,14.10
2023-05-05T21:43:44.459Z,14.10
2023-05-05T21:46:12.258Z,14.10
2023-05-05T21:48:41.396Z,14.00
2023-05-05T21:51:09.199Z,14.00
2023-05-05T21:53:37.778Z,13.90
2023-05-05T21:56:07.631Z,13.90
2023-05-05T21:58:35.410Z,13.90
2023-05-05T22:01:03.234Z,13.70
2023-05-05T22:03:35.024Z,13.80
2023-05-05T22:06:02.873Z,13.70
2023-05-05T22:08:30.638Z,13.60
2023-05-05T22:10:58.334Z,13.50
2023-05-05T22:13:27.402Z,13.40
2023-05-05T22:15:55.154Z,13.30
2023-05-05T22:18:22.908Z,13.20
2023-05-05T22:20:51.272Z,13.20
2023-05-05T22:23:19.145Z,13.10
2023-05-05T22:25:46.886Z,13.00
2023-05-05T22:28:14.611Z,12.90
2023-05-05T22:30:43.787Z,12.90
2023-05-05T22:33:11.612Z,12.70
2023-05-05T22:35:39.565Z,12.60
2023-05-05T22:38:07.389Z,12.30
2023-05-05T22:40:35.671Z,12.20
2023-05-05T22:43:03.404Z,12.00
2023-05-05T22:45:31.215Z,11.80
2023-05-05T22:48:00.843Z,11.60
2023-05-05T22:50:28.858Z,11.50
2023-05-05T22:52:57.152Z,11.40
2023-05-05T22:55:24.946Z,11.30
2023-05-05T22:57:53.283Z,11.30
2023-05-05T23:00:21.056Z,11.20
2023-05-05T23:02:48.874Z,11.10
2023-05-05T23:05:18.015Z,11.10
2023-05-05T23:07:45.736Z,11.00
2023-05-05T23:10:13.442Z,11.00
2023-05-05T23:12:41.221Z,10.90
2023-05-05T23:15:10.056Z,10.80
2023-05-05T23:17:38.115Z,10.80
2023-05-05T23:20:09.557Z,10.70
2023-05-05T23:22:38.715Z,10.60
2023-05-05T23:25:07.453Z,10.60
2023-05-05T23:27:35.361Z,10.60
2023-05-05T23:30:03.163Z,10.50
2023-05-05T23:32:30.983Z,10.50
2023-05-05T23:34:58.690Z,10.50
2023-05-05T23:37:26.481Z,10.60
2023-05-05T23:39:55.539Z,10.50
2023-05-05T23:42:23.219Z,10.50
2023-05-05T23:44:50.940Z,10.50
2023-05-05T23:47:19.026Z,10.50
2023-05-05T23:49:46.777Z,10.50
2023-05-05T23:52:14.459Z,10.40
2023-05-05T23:54:42.606Z,10.40
2023-05-05T23:57:12.002Z,10.30
2023-05-05T23:59:40.421Z,10.30
